Pagina principale
METAR-TAF:

METAR-TAF

Aeroporti :

Al Wajh, Arabia Saudita

latitudine: 26-12N, longitudine: 036-28E, altezza: 20 m

Osservazione

Il bollettino è stato emesso 44 minuti fa, alle 05:00 UTC
Vento 5 kt da nord/nord-est
Temperature 22°C
Umidità 57%
Pressione 1013 hPa
Visibilità 10 km o più
Poco nuvoloso ad un'altezza di 4000 ft
Nubi sparse ad un'altezza di 20000 ft

METAR: OEWJ 180500Z 02005KT 9999 FEW040 SCT200 22/13 Q1013

Ora: 08:44 (05:44 UTC)

Previsione

Il bollettino è stato emesso 6 ore e 44 minuti fa, alle 23:00 UTC
Previsione valida dal 18 alle 00 UTC al 19 alle 06 UTC
Vento 3 kt da direzioni variabili
Visibilità 10 km o più
nessuna nube inferiore a 1500 m e nessun cumulonembo
Evoluzione graduale
dal 18 alle 08 UTC al 18 alle 10 UTC
Vento 15 kt da ovest

TAF: OEWJ 172300Z 1800/1906 VRB03KT CAVOK BECMG 1808/1810 28015KT

Osservazioni e previsioni meteorologiche di più di 4000 aeroporti (messaggi METAR e TAF).

Le stazioni disponibili sono rappresentate dai dischi gialli e rossi sulla carta.

Puntare il mouse per vedere il nome della stazione.

Clicca sopra per visualizzare le osservazioni e previsioni meteorologiche.

Per cambiare la mappa : fare clic sui pulsanti verdi con una croce nera per ingrandire, il pulsante verde con un trattino per diminuire, o sulla freccia verde per le mappe adiacenti.


METAR-TAF: